sensor_id;sensor_type;location;lat;lon;timestamp;P1;durP1;ratioP1;P2;durP2;ratioP2
64387;SDS011;50709;52.648;4.764;2022-07-24T00:00:49;13.60;;;9.23;;
64387;SDS011;50709;52.648;4.764;2022-07-24T00:03:14;14.50;;;9.80;;
64387;SDS011;50709;52.648;4.764;2022-07-24T00:05:39;14.25;;;10.02;;
64387;SDS011;50709;52.648;4.764;2022-07-24T00:08:07;15.50;;;10.30;;
64387;SDS011;50709;52.648;4.764;2022-07-24T00:10:32;14.25;;;10.57;;
64387;SDS011;50709;52.648;4.764;2022-07-24T00:12:58;15.55;;;10.50;;
64387;SDS011;50709;52.648;4.764;2022-07-24T00:15:23;15.15;;;10.85;;
64387;SDS011;50709;52.648;4.764;2022-07-24T00:17:48;16.23;;;11.45;;
64387;SDS011;50709;52.648;4.764;2022-07-24T00:20:14;16.25;;;11.07;;
64387;SDS011;50709;52.648;4.764;2022-07-24T00:22:39;17.70;;;11.85;;
64387;SDS011;50709;52.648;4.764;2022-07-24T00:25:05;16.77;;;11.70;;
64387;SDS011;50709;52.648;4.764;2022-07-24T00:27:30;14.95;;;11.07;;
64387;SDS011;50709;52.648;4.764;2022-07-24T00:29:56;19.35;;;11.40;;
64387;SDS011;50709;52.648;4.764;2022-07-24T00:32:21;18.08;;;12.50;;
64387;SDS011;50709;52.648;4.764;2022-07-24T00:34:46;16.42;;;11.80;;
64387;SDS011;50709;52.648;4.764;2022-07-24T00:37:12;18.80;;;12.40;;
64387;SDS011;50709;52.648;4.764;2022-07-24T00:39:37;18.55;;;13.18;;
64387;SDS011;50709;52.648;4.764;2022-07-24T00:42:02;16.45;;;11.90;;
64387;SDS011;50709;52.648;4.764;2022-07-24T00:44:28;17.92;;;12.57;;
64387;SDS011;50709;52.648;4.764;2022-07-24T00:46:53;16.08;;;12.00;;
64387;SDS011;50709;52.648;4.764;2022-07-24T00:49:19;18.92;;;12.73;;
64387;SDS011;50709;52.648;4.764;2022-07-24T00:51:46;20.45;;;13.25;;
64387;SDS011;50709;52.648;4.764;2022-07-24T00:54:14;17.35;;;12.95;;
64387;SDS011;50709;52.648;4.764;2022-07-24T00:56:41;19.88;;;13.38;;
64387;SDS011;50709;52.648;4.764;2022-07-24T00:59:07;15.52;;;11.55;;
64387;SDS011;50709;52.648;4.764;2022-07-24T01:01:33;18.55;;;12.45;;
64387;SDS011;50709;52.648;4.764;2022-07-24T01:03:58;19.13;;;13.70;;
64387;SDS011;50709;52.648;4.764;2022-07-24T01:06:24;19.00;;;13.68;;
64387;SDS011;50709;52.648;4.764;2022-07-24T01:08:49;16.73;;;12.93;;
64387;SDS011;50709;52.648;4.764;2022-07-24T01:11:15;18.15;;;13.18;;
64387;SDS011;50709;52.648;4.764;2022-07-24T01:13:41;19.38;;;13.45;;
64387;SDS011;50709;52.648;4.764;2022-07-24T01:16:07;19.02;;;13.52;;
64387;SDS011;50709;52.648;4.764;2022-07-24T01:18:33;23.48;;;15.27;;
64387;SDS011;50709;52.648;4.764;2022-07-24T01:20:59;18.17;;;12.85;;
64387;SDS011;50709;52.648;4.764;2022-07-24T01:23:26;19.48;;;14.10;;
64387;SDS011;50709;52.648;4.764;2022-07-24T01:25:51;18.83;;;12.82;;
64387;SDS011;50709;52.648;4.764;2022-07-24T01:28:16;18.15;;;13.15;;
64387;SDS011;50709;52.648;4.764;2022-07-24T01:30:43;18.73;;;12.30;;
64387;SDS011;50709;52.648;4.764;2022-07-24T01:33:08;21.77;;;12.70;;
64387;SDS011;50709;52.648;4.764;2022-07-24T01:35:34;15.50;;;11.68;;
64387;SDS011;50709;52.648;4.764;2022-07-24T01:37:59;16.83;;;12.18;;
64387;SDS011;50709;52.648;4.764;2022-07-24T01:40:25;18.63;;;12.85;;
64387;SDS011;50709;52.648;4.764;2022-07-24T01:42:50;19.27;;;11.73;;
64387;SDS011;50709;52.648;4.764;2022-07-24T01:45:16;17.48;;;11.52;;
64387;SDS011;50709;52.648;4.764;2022-07-24T01:47:42;18.17;;;11.30;;
64387;SDS011;50709;52.648;4.764;2022-07-24T01:50:08;20.05;;;11.85;;
64387;SDS011;50709;52.648;4.764;2022-07-24T01:52:34;16.08;;;10.57;;
64387;SDS011;50709;52.648;4.764;2022-07-24T01:55:00;16.25;;;11.02;;
64387;SDS011;50709;52.648;4.764;2022-07-24T01:57:25;15.50;;;10.50;;
64387;SDS011;50709;52.648;4.764;2022-07-24T01:59:51;15.65;;;10.45;;
64387;SDS011;50709;52.648;4.764;2022-07-24T02:02:16;16.15;;;10.80;;
64387;SDS011;50709;52.648;4.764;2022-07-24T02:04:41;15.40;;;9.75;;
64387;SDS011;50709;52.648;4.764;2022-07-24T02:07:06;15.15;;;10.27;;
64387;SDS011;50709;52.648;4.764;2022-07-24T02:09:32;17.15;;;10.75;;
64387;SDS011;50709;52.648;4.764;2022-07-24T02:11:57;14.80;;;9.38;;
64387;SDS011;50709;52.648;4.764;2022-07-24T02:14:22;13.23;;;9.65;;
64387;SDS011;50709;52.648;4.764;2022-07-24T02:16:48;14.05;;;9.65;;
64387;SDS011;50709;52.648;4.764;2022-07-24T02:19:13;15.77;;;9.60;;
64387;SDS011;50709;52.648;4.764;2022-07-24T02:21:39;13.68;;;9.45;;
64387;SDS011;50709;52.648;4.764;2022-07-24T02:24:04;12.35;;;9.10;;
64387;SDS011;50709;52.648;4.764;2022-07-24T02:26:30;14.43;;;9.18;;
64387;SDS011;50709;52.648;4.764;2022-07-24T02:28:55;15.57;;;8.52;;
64387;SDS011;50709;52.648;4.764;2022-07-24T02:31:21;15.00;;;8.50;;
64387;SDS011;50709;52.648;4.764;2022-07-24T02:33:46;12.93;;;8.43;;
64387;SDS011;50709;52.648;4.764;2022-07-24T02:36:12;12.30;;;7.78;;
64387;SDS011;50709;52.648;4.764;2022-07-24T02:38:37;11.73;;;7.47;;
64387;SDS011;50709;52.648;4.764;2022-07-24T02:41:03;13.35;;;7.75;;
64387;SDS011;50709;52.648;4.764;2022-07-24T02:43:28;16.35;;;7.85;;
64387;SDS011;50709;52.648;4.764;2022-07-24T02:45:53;14.50;;;7.78;;
64387;SDS011;50709;52.648;4.764;2022-07-24T02:48:19;10.98;;;7.35;;
64387;SDS011;50709;52.648;4.764;2022-07-24T02:50:45;12.35;;;7.70;;
64387;SDS011;50709;52.648;4.764;2022-07-24T02:53:10;12.02;;;6.93;;
64387;SDS011;50709;52.648;4.764;2022-07-24T02:55:36;11.98;;;7.65;;
64387;SDS011;50709;52.648;4.764;2022-07-24T02:58:01;9.98;;;6.68;;
64387;SDS011;50709;52.648;4.764;2022-07-24T03:00:26;11.27;;;6.68;;
64387;SDS011;50709;52.648;4.764;2022-07-24T03:02:52;10.70;;;6.18;;
64387;SDS011;50709;52.648;4.764;2022-07-24T03:05:17;12.68;;;6.78;;
64387;SDS011;50709;52.648;4.764;2022-07-24T03:07:43;10.15;;;6.28;;
64387;SDS011;50709;52.648;4.764;2022-07-24T03:10:09;11.60;;;6.55;;
64387;SDS011;50709;52.648;4.764;2022-07-24T03:12:36;11.10;;;6.38;;
64387;SDS011;50709;52.648;4.764;2022-07-24T03:15:02;12.52;;;6.78;;
64387;SDS011;50709;52.648;4.764;2022-07-24T03:17:28;10.18;;;6.50;;
64387;SDS011;50709;52.648;4.764;2022-07-24T03:19:53;13.20;;;7.13;;
64387;SDS011;50709;52.648;4.764;2022-07-24T03:22:18;8.77;;;6.47;;
64387;SDS011;50709;52.648;4.764;2022-07-24T03:24:43;13.45;;;7.35;;
64387;SDS011;50709;52.648;4.764;2022-07-24T03:27:09;10.02;;;6.80;;
64387;SDS011;50709;52.648;4.764;2022-07-24T03:29:34;10.55;;;7.35;;
64387;SDS011;50709;52.648;4.764;2022-07-24T03:31:59;12.77;;;7.60;;
64387;SDS011;50709;52.648;4.764;2022-07-24T03:34:25;10.30;;;7.60;;
64387;SDS011;50709;52.648;4.764;2022-07-24T03:36:50;11.27;;;6.93;;
64387;SDS011;50709;52.648;4.764;2022-07-24T03:39:16;10.57;;;6.80;;
64387;SDS011;50709;52.648;4.764;2022-07-24T03:41:41;12.13;;;6.90;;
64387;SDS011;50709;52.648;4.764;2022-07-24T03:44:07;11.73;;;7.75;;
64387;SDS011;50709;52.648;4.764;2022-07-24T03:46:32;12.57;;;7.57;;
64387;SDS011;50709;52.648;4.764;2022-07-24T03:48:58;14.63;;;7.43;;
64387;SDS011;50709;52.648;4.764;2022-07-24T03:51:23;11.18;;;7.22;;
64387;SDS011;50709;52.648;4.764;2022-07-24T03:53:49;11.18;;;6.55;;
64387;SDS011;50709;52.648;4.764;2022-07-24T03:56:14;10.23;;;6.63;;
64387;SDS011;50709;52.648;4.764;2022-07-24T03:58:40;13.70;;;6.82;;
64387;SDS011;50709;52.648;4.764;2022-07-24T04:01:06;13.35;;;7.00;;
64387;SDS011;50709;52.648;4.764;2022-07-24T04:03:32;15.85;;;6.72;;
64387;SDS011;50709;52.648;4.764;2022-07-24T04:05:58;11.80;;;6.93;;
64387;SDS011;50709;52.648;4.764;2022-07-24T04:08:25;12.05;;;6.22;;
64387;SDS011;50709;52.648;4.764;2022-07-24T04:10:50;9.90;;;5.97;;
64387;SDS011;50709;52.648;4.764;2022-07-24T04:13:21;9.60;;;6.00;;
64387;SDS011;50709;52.648;4.764;2022-07-24T04:15:50;11.18;;;6.15;;
64387;SDS011;50709;52.648;4.764;2022-07-24T04:18:16;9.48;;;5.65;;
64387;SDS011;50709;52.648;4.764;2022-07-24T04:20:41;10.25;;;6.25;;
64387;SDS011;50709;52.648;4.764;2022-07-24T04:23:07;9.38;;;6.40;;
64387;SDS011;50709;52.648;4.764;2022-07-24T04:25:32;10.85;;;5.90;;
64387;SDS011;50709;52.648;4.764;2022-07-24T04:27:59;9.93;;;6.22;;
64387;SDS011;50709;52.648;4.764;2022-07-24T04:30:27;12.02;;;6.35;;
64387;SDS011;50709;52.648;4.764;2022-07-24T04:32:53;8.35;;;5.90;;
64387;SDS011;50709;52.648;4.764;2022-07-24T04:35:18;11.13;;;6.35;;
64387;SDS011;50709;52.648;4.764;2022-07-24T04:37:44;9.45;;;6.30;;
64387;SDS011;50709;52.648;4.764;2022-07-24T04:40:11;9.68;;;5.68;;
64387;SDS011;50709;52.648;4.764;2022-07-24T04:42:37;10.38;;;6.03;;
64387;SDS011;50709;52.648;4.764;2022-07-24T04:45:02;10.88;;;6.00;;
64387;SDS011;50709;52.648;4.764;2022-07-24T04:47:28;10.23;;;5.72;;
64387;SDS011;50709;52.648;4.764;2022-07-24T04:49:53;10.57;;;6.20;;
64387;SDS011;50709;52.648;4.764;2022-07-24T04:52:19;8.68;;;5.45;;
64387;SDS011;50709;52.648;4.764;2022-07-24T04:54:44;9.90;;;6.10;;
64387;SDS011;50709;52.648;4.764;2022-07-24T04:57:09;9.73;;;6.20;;
64387;SDS011;50709;52.648;4.764;2022-07-24T04:59:35;9.48;;;6.30;;
64387;SDS011;50709;52.648;4.764;2022-07-24T05:02:00;11.90;;;6.13;;
64387;SDS011;50709;52.648;4.764;2022-07-24T05:04:25;9.77;;;6.15;;
64387;SDS011;50709;52.648;4.764;2022-07-24T05:06:50;10.70;;;6.22;;
64387;SDS011;50709;52.648;4.764;2022-07-24T05:09:16;10.75;;;6.20;;
64387;SDS011;50709;52.648;4.764;2022-07-24T05:11:41;10.73;;;6.10;;
64387;SDS011;50709;52.648;4.764;2022-07-24T05:14:07;9.38;;;5.95;;
64387;SDS011;50709;52.648;4.764;2022-07-24T05:16:32;12.00;;;6.38;;
64387;SDS011;50709;52.648;4.764;2022-07-24T05:18:57;9.90;;;6.07;;
64387;SDS011;50709;52.648;4.764;2022-07-24T05:21:23;11.95;;;6.20;;
64387;SDS011;50709;52.648;4.764;2022-07-24T05:23:48;10.77;;;6.55;;
64387;SDS011;50709;52.648;4.764;2022-07-24T05:26:14;9.10;;;5.68;;
64387;SDS011;50709;52.648;4.764;2022-07-24T05:28:39;8.43;;;5.55;;
64387;SDS011;50709;52.648;4.764;2022-07-24T05:31:04;11.02;;;6.10;;
64387;SDS011;50709;52.648;4.764;2022-07-24T05:33:30;9.93;;;5.78;;
64387;SDS011;50709;52.648;4.764;2022-07-24T05:35:56;9.98;;;5.88;;
64387;SDS011;50709;52.648;4.764;2022-07-24T05:38:21;12.10;;;5.63;;
64387;SDS011;50709;52.648;4.764;2022-07-24T05:40:47;8.60;;;5.40;;
64387;SDS011;50709;52.648;4.764;2022-07-24T05:43:12;10.30;;;5.68;;
64387;SDS011;50709;52.648;4.764;2022-07-24T05:45:38;13.52;;;5.72;;
64387;SDS011;50709;52.648;4.764;2022-07-24T05:48:03;7.28;;;5.00;;
64387;SDS011;50709;52.648;4.764;2022-07-24T05:50:29;8.95;;;5.15;;
64387;SDS011;50709;52.648;4.764;2022-07-24T05:52:54;9.70;;;5.30;;
64387;SDS011;50709;52.648;4.764;2022-07-24T05:55:19;8.87;;;5.23;;
64387;SDS011;50709;52.648;4.764;2022-07-24T05:57:45;10.75;;;5.72;;
64387;SDS011;50709;52.648;4.764;2022-07-24T06:00:11;7.80;;;5.13;;
64387;SDS011;50709;52.648;4.764;2022-07-24T06:02:38;11.27;;;5.07;;
64387;SDS011;50709;52.648;4.764;2022-07-24T06:05:03;6.88;;;4.63;;
64387;SDS011;50709;52.648;4.764;2022-07-24T06:07:28;9.55;;;4.55;;
64387;SDS011;50709;52.648;4.764;2022-07-24T06:09:54;8.20;;;5.22;;
64387;SDS011;50709;52.648;4.764;2022-07-24T06:12:19;8.07;;;4.85;;
64387;SDS011;50709;52.648;4.764;2022-07-24T06:14:44;9.18;;;4.53;;
64387;SDS011;50709;52.648;4.764;2022-07-24T06:17:10;6.00;;;4.32;;
64387;SDS011;50709;52.648;4.764;2022-07-24T06:19:35;8.23;;;4.70;;
64387;SDS011;50709;52.648;4.764;2022-07-24T06:22:01;7.38;;;4.57;;
64387;SDS011;50709;52.648;4.764;2022-07-24T06:24:27;7.40;;;4.55;;
64387;SDS011;50709;52.648;4.764;2022-07-24T06:26:52;8.32;;;4.13;;
64387;SDS011;50709;52.648;4.764;2022-07-24T06:29:17;7.57;;;4.75;;
64387;SDS011;50709;52.648;4.764;2022-07-24T06:31:43;7.15;;;3.78;;
64387;SDS011;50709;52.648;4.764;2022-07-24T06:34:08;6.85;;;4.05;;
64387;SDS011;50709;52.648;4.764;2022-07-24T06:36:33;7.28;;;4.00;;
64387;SDS011;50709;52.648;4.764;2022-07-24T06:38:59;6.40;;;3.70;;
64387;SDS011;50709;52.648;4.764;2022-07-24T06:41:24;6.50;;;4.30;;
64387;SDS011;50709;52.648;4.764;2022-07-24T06:43:49;6.50;;;3.75;;
64387;SDS011;50709;52.648;4.764;2022-07-24T06:46:15;10.57;;;4.30;;
64387;SDS011;50709;52.648;4.764;2022-07-24T06:48:40;5.70;;;3.80;;
64387;SDS011;50709;52.648;4.764;2022-07-24T06:51:05;6.18;;;3.75;;
64387;SDS011;50709;52.648;4.764;2022-07-24T06:53:31;5.63;;;3.65;;
64387;SDS011;50709;52.648;4.764;2022-07-24T06:55:56;6.32;;;3.90;;
64387;SDS011;50709;52.648;4.764;2022-07-24T06:58:21;7.95;;;4.43;;
64387;SDS011;50709;52.648;4.764;2022-07-24T07:00:47;5.28;;;3.60;;
64387;SDS011;50709;52.648;4.764;2022-07-24T07:03:13;6.60;;;3.90;;
64387;SDS011;50709;52.648;4.764;2022-07-24T07:05:39;9.50;;;3.92;;
64387;SDS011;50709;52.648;4.764;2022-07-24T07:08:05;9.35;;;3.72;;
64387;SDS011;50709;52.648;4.764;2022-07-24T07:10:30;6.78;;;3.83;;
64387;SDS011;50709;52.648;4.764;2022-07-24T07:12:55;7.13;;;3.78;;
64387;SDS011;50709;52.648;4.764;2022-07-24T07:15:21;8.05;;;3.60;;
64387;SDS011;50709;52.648;4.764;2022-07-24T07:17:46;6.07;;;3.70;;
64387;SDS011;50709;52.648;4.764;2022-07-24T07:20:12;7.63;;;3.55;;
64387;SDS011;50709;52.648;4.764;2022-07-24T07:22:38;5.70;;;3.50;;
64387;SDS011;50709;52.648;4.764;2022-07-24T07:25:05;5.70;;;3.55;;
64387;SDS011;50709;52.648;4.764;2022-07-24T07:27:31;5.90;;;3.75;;
64387;SDS011;50709;52.648;4.764;2022-07-24T07:29:57;6.60;;;3.63;;
64387;SDS011;50709;52.648;4.764;2022-07-24T07:32:22;6.78;;;3.53;;
64387;SDS011;50709;52.648;4.764;2022-07-24T07:34:48;6.80;;;3.75;;
64387;SDS011;50709;52.648;4.764;2022-07-24T07:37:13;5.28;;;3.35;;
64387;SDS011;50709;52.648;4.764;2022-07-24T07:39:38;6.18;;;3.20;;
64387;SDS011;50709;52.648;4.764;2022-07-24T07:42:04;5.97;;;3.95;;
64387;SDS011;50709;52.648;4.764;2022-07-24T07:44:29;6.50;;;3.40;;
64387;SDS011;50709;52.648;4.764;2022-07-24T07:46:55;5.75;;;3.60;;
64387;SDS011;50709;52.648;4.764;2022-07-24T07:49:20;6.03;;;3.17;;
64387;SDS011;50709;52.648;4.764;2022-07-24T07:51:45;6.30;;;3.65;;
64387;SDS011;50709;52.648;4.764;2022-07-24T07:54:13;8.45;;;3.78;;
64387;SDS011;50709;52.648;4.764;2022-07-24T07:56:39;4.00;;;3.10;;
64387;SDS011;50709;52.648;4.764;2022-07-24T07:59:05;5.85;;;2.88;;
64387;SDS011;50709;52.648;4.764;2022-07-24T08:01:30;7.00;;;3.35;;
64387;SDS011;50709;52.648;4.764;2022-07-24T08:03:56;6.20;;;3.40;;
64387;SDS011;50709;52.648;4.764;2022-07-24T08:06:21;6.22;;;3.38;;
64387;SDS011;50709;52.648;4.764;2022-07-24T08:08:46;5.93;;;3.35;;
64387;SDS011;50709;52.648;4.764;2022-07-24T08:11:12;6.72;;;3.38;;
64387;SDS011;50709;52.648;4.764;2022-07-24T08:13:37;5.15;;;3.30;;
64387;SDS011;50709;52.648;4.764;2022-07-24T08:16:03;4.35;;;3.00;;
64387;SDS011;50709;52.648;4.764;2022-07-24T08:18:28;5.00;;;3.22;;
64387;SDS011;50709;52.648;4.764;2022-07-24T08:20:54;6.50;;;3.58;;
64387;SDS011;50709;52.648;4.764;2022-07-24T08:23:19;5.20;;;3.55;;
64387;SDS011;50709;52.648;4.764;2022-07-24T08:25:44;4.30;;;3.28;;
64387;SDS011;50709;52.648;4.764;2022-07-24T08:28:10;6.20;;;3.47;;
64387;SDS011;50709;52.648;4.764;2022-07-24T08:30:35;10.50;;;3.72;;
64387;SDS011;50709;52.648;4.764;2022-07-24T08:33:00;5.85;;;3.30;;
64387;SDS011;50709;52.648;4.764;2022-07-24T08:35:26;6.32;;;3.60;;
64387;SDS011;50709;52.648;4.764;2022-07-24T08:37:51;6.68;;;3.33;;
64387;SDS011;50709;52.648;4.764;2022-07-24T08:40:16;4.57;;;3.22;;
64387;SDS011;50709;52.648;4.764;2022-07-24T08:42:42;5.30;;;3.30;;
64387;SDS011;50709;52.648;4.764;2022-07-24T08:45:07;5.07;;;3.10;;
64387;SDS011;50709;52.648;4.764;2022-07-24T08:47:33;5.75;;;3.20;;
64387;SDS011;50709;52.648;4.764;2022-07-24T08:50:00;4.70;;;3.25;;
64387;SDS011;50709;52.648;4.764;2022-07-24T08:52:27;4.50;;;3.25;;
64387;SDS011;50709;52.648;4.764;2022-07-24T08:54:53;5.65;;;3.25;;
64387;SDS011;50709;52.648;4.764;2022-07-24T08:57:19;4.07;;;2.97;;
64387;SDS011;50709;52.648;4.764;2022-07-24T08:59:45;6.47;;;3.15;;
64387;SDS011;50709;52.648;4.764;2022-07-24T09:02:11;4.88;;;3.22;;
64387;SDS011;50709;52.648;4.764;2022-07-24T09:04:40;4.97;;;3.10;;
64387;SDS011;50709;52.648;4.764;2022-07-24T09:07:12;4.90;;;2.90;;
64387;SDS011;50709;52.648;4.764;2022-07-24T09:09:40;4.30;;;3.10;;
64387;SDS011;50709;52.648;4.764;2022-07-24T09:12:10;5.03;;;3.10;;
64387;SDS011;50709;52.648;4.764;2022-07-24T09:14:38;4.38;;;3.40;;
64387;SDS011;50709;52.648;4.764;2022-07-24T09:17:14;5.40;;;3.42;;
64387;SDS011;50709;52.648;4.764;2022-07-24T09:19:48;5.90;;;3.30;;
64387;SDS011;50709;52.648;4.764;2022-07-24T09:25:03;4.63;;;3.08;;
64387;SDS011;50709;52.648;4.764;2022-07-24T09:27:50;5.35;;;2.97;;
64387;SDS011;50709;52.648;4.764;2022-07-24T09:30:22;5.47;;;3.67;;
64387;SDS011;50709;52.648;4.764;2022-07-24T09:33:00;6.45;;;3.55;;
64387;SDS011;50709;52.648;4.764;2022-07-24T09:35:31;5.53;;;3.40;;
64387;SDS011;50709;52.648;4.764;2022-07-24T09:38:08;6.88;;;3.40;;
64387;SDS011;50709;52.648;4.764;2022-07-24T09:40:39;5.07;;;3.10;;
64387;SDS011;50709;52.648;4.764;2022-07-24T09:45:51;5.18;;;3.25;;
64387;SDS011;50709;52.648;4.764;2022-07-24T09:51:19;5.63;;;3.10;;
64387;SDS011;50709;52.648;4.764;2022-07-24T09:53:46;4.95;;;3.00;;
64387;SDS011;50709;52.648;4.764;2022-07-24T09:56:16;5.07;;;3.30;;
64387;SDS011;50709;52.648;4.764;2022-07-24T10:01:11;4.97;;;3.30;;
64387;SDS011;50709;52.648;4.764;2022-07-24T10:03:40;4.63;;;3.13;;
64387;SDS011;50709;52.648;4.764;2022-07-24T10:06:08;6.72;;;3.30;;
64387;SDS011;50709;52.648;4.764;2022-07-24T10:08:36;5.57;;;2.90;;
64387;SDS011;50709;52.648;4.764;2022-07-24T10:11:03;6.45;;;3.30;;
64387;SDS011;50709;52.648;4.764;2022-07-24T10:13:29;4.90;;;3.20;;
64387;SDS011;50709;52.648;4.764;2022-07-24T10:18:50;3.75;;;2.83;;
64387;SDS011;50709;52.648;4.764;2022-07-24T10:21:27;12.15;;;4.60;;
64387;SDS011;50709;52.648;4.764;2022-07-24T10:24:07;9.10;;;4.55;;
64387;SDS011;50709;52.648;4.764;2022-07-24T10:26:47;6.80;;;3.80;;
64387;SDS011;50709;52.648;4.764;2022-07-24T10:31:46;5.78;;;3.40;;
64387;SDS011;50709;52.648;4.764;2022-07-24T10:34:45;6.50;;;3.70;;
64387;SDS011;50709;52.648;4.764;2022-07-24T10:45:33;7.23;;;3.80;;
64387;SDS011;50709;52.648;4.764;2022-07-24T10:48:23;8.85;;;4.05;;
64387;SDS011;50709;52.648;4.764;2022-07-24T10:58:59;6.80;;;3.63;;
64387;SDS011;50709;52.648;4.764;2022-07-24T11:01:29;7.63;;;3.30;;
64387;SDS011;50709;52.648;4.764;2022-07-24T11:03:58;8.30;;;3.67;;
64387;SDS011;50709;52.648;4.764;2022-07-24T11:09:13;7.88;;;3.47;;
64387;SDS011;50709;52.648;4.764;2022-07-24T11:12:02;7.88;;;3.92;;
64387;SDS011;50709;52.648;4.764;2022-07-24T11:14:26;10.13;;;3.95;;
64387;SDS011;50709;52.648;4.764;2022-07-24T11:20:17;6.53;;;3.67;;
64387;SDS011;50709;52.648;4.764;2022-07-24T11:22:51;7.25;;;3.63;;
64387;SDS011;50709;52.648;4.764;2022-07-24T11:25:19;5.80;;;3.35;;
64387;SDS011;50709;52.648;4.764;2022-07-24T11:30:21;6.20;;;3.45;;
64387;SDS011;50709;52.648;4.764;2022-07-24T11:32:48;5.63;;;3.50;;
64387;SDS011;50709;52.648;4.764;2022-07-24T11:35:15;6.50;;;3.30;;
64387;SDS011;50709;52.648;4.764;2022-07-24T11:37:42;5.88;;;3.40;;
64387;SDS011;50709;52.648;4.764;2022-07-24T11:40:08;5.43;;;3.63;;
64387;SDS011;50709;52.648;4.764;2022-07-24T11:42:38;7.60;;;3.58;;
64387;SDS011;50709;52.648;4.764;2022-07-24T11:45:04;5.13;;;3.10;;
64387;SDS011;50709;52.648;4.764;2022-07-24T11:47:30;6.55;;;4.18;;
64387;SDS011;50709;52.648;4.764;2022-07-24T11:54:59;7.13;;;3.40;;
64387;SDS011;50709;52.648;4.764;2022-07-24T11:57:31;4.45;;;3.30;;
64387;SDS011;50709;52.648;4.764;2022-07-24T11:59:57;7.05;;;3.50;;
64387;SDS011;50709;52.648;4.764;2022-07-24T12:02:24;6.18;;;3.40;;
64387;SDS011;50709;52.648;4.764;2022-07-24T12:04:50;5.78;;;3.47;;
64387;SDS011;50709;52.648;4.764;2022-07-24T12:07:20;5.75;;;3.38;;
64387;SDS011;50709;52.648;4.764;2022-07-24T12:09:48;5.90;;;3.05;;
64387;SDS011;50709;52.648;4.764;2022-07-24T12:12:25;6.30;;;3.47;;
64387;SDS011;50709;52.648;4.764;2022-07-24T12:15:08;5.13;;;3.43;;
64387;SDS011;50709;52.648;4.764;2022-07-24T12:20:24;7.43;;;3.38;;
64387;SDS011;50709;52.648;4.764;2022-07-24T12:22:58;4.55;;;3.50;;
64387;SDS011;50709;52.648;4.764;2022-07-24T12:25:25;8.07;;;3.28;;
64387;SDS011;50709;52.648;4.764;2022-07-24T12:28:26;6.03;;;3.58;;
64387;SDS011;50709;52.648;4.764;2022-07-24T12:30:45;5.32;;;3.47;;
64387;SDS011;50709;52.648;4.764;2022-07-24T12:38:36;4.40;;;3.05;;
64387;SDS011;50709;52.648;4.764;2022-07-24T12:41:21;6.75;;;3.42;;
64387;SDS011;50709;52.648;4.764;2022-07-24T12:46:20;9.93;;;3.50;;
64387;SDS011;50709;52.648;4.764;2022-07-24T12:49:08;5.72;;;3.67;;
64387;SDS011;50709;52.648;4.764;2022-07-24T12:51:51;7.40;;;3.83;;
64387;SDS011;50709;52.648;4.764;2022-07-24T12:54:24;7.03;;;3.53;;
64387;SDS011;50709;52.648;4.764;2022-07-24T12:56:58;6.68;;;3.78;;
64387;SDS011;50709;52.648;4.764;2022-07-24T12:59:31;5.22;;;3.63;;
64387;SDS011;50709;52.648;4.764;2022-07-24T13:04:52;5.72;;;3.58;;
64387;SDS011;50709;52.648;4.764;2022-07-24T13:07:20;5.93;;;3.80;;
64387;SDS011;50709;52.648;4.764;2022-07-24T13:09:47;6.82;;;4.20;;
64387;SDS011;50709;52.648;4.764;2022-07-24T13:12:13;6.57;;;3.97;;
64387;SDS011;50709;52.648;4.764;2022-07-24T13:14:39;4.70;;;3.60;;
64387;SDS011;50709;52.648;4.764;2022-07-24T13:19:34;6.70;;;4.18;;
64387;SDS011;50709;52.648;4.764;2022-07-24T13:22:04;4.35;;;3.15;;
64387;SDS011;50709;52.648;4.764;2022-07-24T13:24:30;5.13;;;3.47;;
64387;SDS011;50709;52.648;4.764;2022-07-24T13:26:55;6.65;;;4.05;;
64387;SDS011;50709;52.648;4.764;2022-07-24T13:29:21;5.30;;;3.58;;
64387;SDS011;50709;52.648;4.764;2022-07-24T13:31:49;6.38;;;3.90;;
64387;SDS011;50709;52.648;4.764;2022-07-24T13:34:14;5.45;;;3.17;;
64387;SDS011;50709;52.648;4.764;2022-07-24T13:36:40;4.97;;;3.42;;
64387;SDS011;50709;52.648;4.764;2022-07-24T13:39:06;7.60;;;3.65;;
64387;SDS011;50709;52.648;4.764;2022-07-24T13:41:32;5.68;;;3.78;;
64387;SDS011;50709;52.648;4.764;2022-07-24T13:43:58;7.38;;;3.88;;
64387;SDS011;50709;52.648;4.764;2022-07-24T13:46:23;8.77;;;4.22;;
64387;SDS011;50709;52.648;4.764;2022-07-24T13:48:49;8.20;;;4.20;;
64387;SDS011;50709;52.648;4.764;2022-07-24T13:51:16;6.20;;;3.85;;
64387;SDS011;50709;52.648;4.764;2022-07-24T13:53:42;5.90;;;3.55;;
64387;SDS011;50709;52.648;4.764;2022-07-24T13:56:07;5.47;;;3.50;;
64387;SDS011;50709;52.648;4.764;2022-07-24T13:58:33;5.38;;;3.72;;
64387;SDS011;50709;52.648;4.764;2022-07-24T14:01:01;5.97;;;3.50;;
64387;SDS011;50709;52.648;4.764;2022-07-24T14:03:28;5.43;;;3.50;;
64387;SDS011;50709;52.648;4.764;2022-07-24T14:05:53;4.22;;;3.13;;
64387;SDS011;50709;52.648;4.764;2022-07-24T14:08:19;5.55;;;3.38;;
64387;SDS011;50709;52.648;4.764;2022-07-24T14:10:44;6.13;;;3.60;;
64387;SDS011;50709;52.648;4.764;2022-07-24T14:13:09;4.43;;;3.22;;
64387;SDS011;50709;52.648;4.764;2022-07-24T14:15:35;6.22;;;3.20;;
64387;SDS011;50709;52.648;4.764;2022-07-24T14:18:02;4.95;;;3.30;;
64387;SDS011;50709;52.648;4.764;2022-07-24T14:20:28;4.05;;;3.15;;
64387;SDS011;50709;52.648;4.764;2022-07-24T14:22:53;6.53;;;3.28;;
64387;SDS011;50709;52.648;4.764;2022-07-24T14:25:18;4.57;;;3.50;;
64387;SDS011;50709;52.648;4.764;2022-07-24T14:27:44;4.63;;;3.40;;
64387;SDS011;50709;52.648;4.764;2022-07-24T14:30:09;5.55;;;3.40;;
64387;SDS011;50709;52.648;4.764;2022-07-24T14:32:35;4.25;;;3.13;;
64387;SDS011;50709;52.648;4.764;2022-07-24T14:35:00;4.40;;;3.20;;
64387;SDS011;50709;52.648;4.764;2022-07-24T14:37:31;4.75;;;3.20;;
64387;SDS011;50709;52.648;4.764;2022-07-24T14:40:01;4.82;;;3.22;;
64387;SDS011;50709;52.648;4.764;2022-07-24T14:42:31;6.35;;;3.80;;
64387;SDS011;50709;52.648;4.764;2022-07-24T14:44:56;4.75;;;3.10;;
64387;SDS011;50709;52.648;4.764;2022-07-24T14:47:21;5.95;;;3.30;;
64387;SDS011;50709;52.648;4.764;2022-07-24T14:49:47;4.82;;;3.40;;
64387;SDS011;50709;52.648;4.764;2022-07-24T14:52:13;5.78;;;3.60;;
64387;SDS011;50709;52.648;4.764;2022-07-24T14:54:38;5.60;;;3.53;;
64387;SDS011;50709;52.648;4.764;2022-07-24T14:57:04;6.15;;;3.90;;
64387;SDS011;50709;52.648;4.764;2022-07-24T14:59:29;6.00;;;3.67;;
64387;SDS011;50709;52.648;4.764;2022-07-24T15:01:55;5.28;;;3.90;;
64387;SDS011;50709;52.648;4.764;2022-07-24T15:04:20;4.97;;;4.07;;
64387;SDS011;50709;52.648;4.764;2022-07-24T15:06:45;5.43;;;3.72;;
64387;SDS011;50709;52.648;4.764;2022-07-24T15:09:11;5.70;;;4.57;;
64387;SDS011;50709;52.648;4.764;2022-07-24T15:11:36;5.65;;;4.05;;
64387;SDS011;50709;52.648;4.764;2022-07-24T15:14:02;6.32;;;4.30;;
64387;SDS011;50709;52.648;4.764;2022-07-24T15:16:28;6.07;;;4.10;;
64387;SDS011;50709;52.648;4.764;2022-07-24T15:18:53;4.78;;;3.85;;
64387;SDS011;50709;52.648;4.764;2022-07-24T15:21:19;7.43;;;3.93;;
64387;SDS011;50709;52.648;4.764;2022-07-24T15:23:44;5.17;;;4.17;;
64387;SDS011;50709;52.648;4.764;2022-07-24T15:26:09;8.30;;;4.75;;
64387;SDS011;50709;52.648;4.764;2022-07-24T15:28:34;5.70;;;4.07;;
64387;SDS011;50709;52.648;4.764;2022-07-24T15:31:00;8.40;;;4.35;;
64387;SDS011;50709;52.648;4.764;2022-07-24T15:33:25;6.75;;;4.20;;
64387;SDS011;50709;52.648;4.764;2022-07-24T15:35:51;9.38;;;4.30;;
64387;SDS011;50709;52.648;4.764;2022-07-24T15:38:16;6.68;;;4.50;;
64387;SDS011;50709;52.648;4.764;2022-07-24T15:40:42;6.50;;;4.22;;